Grant Town, WV (26574)

3:33 PM EST on February 11, 2016 (GMT -0500)
Rivesville | | Change Station
CLOSE
Current Station
Personal Weather Station
Location: Rivesville, WV
Elevation: 942 ft
Nearby Weather Stations

Elev 942 ft 39.53 °N, 80.13 °W | Updated 10 minutes ago

Overcast
Overcast
19.9 °F
Feels Like 12 °F
N
6.3
Wind Variable Wind from NNW

Today
High -- | Low -- °F
--% Chance of Precip.
Yesterday
High -- | Low -- °F
Precip. -- in
Pressure 30.23 in
Visibility 10.0 miles
Clouds Mostly Cloudy 4300 ft
Overcast 5000 ft
Windchill 12 °F
Dew Point 1 °F
Humidity 42%
Rainfall 0.00 in
Snow Depth Not available.
7:18 AM 5:52 PM
Waxing Crescent, 14% visible
METAR KMGW 111953Z 28007KT 10SM BKN043 OVC050 M07/M18 A3016 RMK AO2 SLP235 T10671178
Pressure 30.23 in
Visibility 10.0 miles
Clouds Mostly Cloudy 4300 ft
Overcast 5000 ft
Windchill 12 °F
Dew Point 1 °F
Humidity 42%
Rainfall 0.00 in
Snow Depth Not available.
7:18 AM 5:52 PM
Waxing Crescent, 14% visible
METAR KMGW 111953Z 28007KT 10SM BKN043 OVC050 M07/M18 A3016 RMK AO2 SLP235 T10671178

10-Day Weather Forecast

Almanac

Astronomy

Feb. 11, 2016 Rise Set
Actual Time
Civil Twilight
Nautical Twilight
Astronomical Twilight
Moon
Length of Visible Light
Length of Day
Tomorrow will be .
, % of the Moon is Illuminated

Today's Extremes

State Highs State Lows

Community

WunderPhotos

Upload Photos

1,892,149 photos uploaded!

WunderBlog® & News

Nearby

Air Quality

  Air Quality AQ Index Pollutant
Not available.

Snow Depth

Station Depth Elevation

Earthquake Activity

City Distance Mag. Time & Date
Minimum magnitude displayed is 2.5.

Coastal Water Temperatures

Place Temperature

Stations

Nearby Weather Stations

Station Location Temp. Windchill Dew Point Humidity Wind Precip. Elev Updated Type
                   

Watches & Warnings

There are currently no watches in effect.